createdAt,value
2017-12-13T00:00:27.402Z,123.60
2017-12-13T00:02:54.935Z,119.40
2017-12-13T00:05:22.521Z,113.43
2017-12-13T00:07:50.045Z,133.77
2017-12-13T00:10:17.574Z,135.57
2017-12-13T00:12:45.129Z,124.00
2017-12-13T00:15:12.712Z,139.70
2017-12-13T00:17:40.237Z,140.27
2017-12-13T00:20:07.768Z,132.50
2017-12-13T00:22:35.355Z,124.17
2017-12-13T00:25:02.875Z,132.40
2017-12-13T00:27:30.393Z,130.40
2017-12-13T00:29:57.964Z,125.07
2017-12-13T00:32:25.511Z,128.43
2017-12-13T00:34:53.098Z,133.00
2017-12-13T00:37:20.649Z,136.23
2017-12-13T00:39:48.180Z,135.47
2017-12-13T00:42:15.759Z,103.70
2017-12-13T00:44:43.279Z,107.83
2017-12-13T00:47:10.813Z,117.70
2017-12-13T00:49:38.388Z,114.20
2017-12-13T00:52:05.936Z,112.10
2017-12-13T00:54:33.468Z,104.00
2017-12-13T00:57:01.078Z,102.53
2017-12-13T00:59:28.605Z,98.23
2017-12-13T01:01:56.155Z,104.83
2017-12-13T01:04:23.710Z,82.63
2017-12-13T01:06:51.251Z,105.87
2017-12-13T01:09:18.799Z,103.27
2017-12-13T01:11:46.315Z,94.17
2017-12-13T01:14:13.888Z,96.47
2017-12-13T01:16:41.421Z,104.37
2017-12-13T01:19:08.952Z,93.00
2017-12-13T01:21:36.502Z,108.57
2017-12-13T01:24:04.053Z,100.40
2017-12-13T01:26:31.628Z,106.37
2017-12-13T01:28:59.163Z,97.70
2017-12-13T01:31:26.683Z,103.93
2017-12-13T01:33:54.224Z,98.90
2017-12-13T01:36:21.756Z,81.97
2017-12-13T01:38:49.336Z,107.33
2017-12-13T01:41:16.863Z,99.53
2017-12-13T01:43:44.393Z,98.43
2017-12-13T01:46:11.974Z,107.70
2017-12-13T01:48:39.556Z,105.03
2017-12-13T01:51:07.088Z,90.23
2017-12-13T01:53:34.664Z,94.40
2017-12-13T01:56:02.188Z,91.40
2017-12-13T01:58:29.711Z,104.43
2017-12-13T02:00:57.288Z,87.20
2017-12-13T02:03:24.855Z,85.83
2017-12-13T02:05:52.393Z,98.80
2017-12-13T02:08:19.926Z,91.63
2017-12-13T02:10:47.529Z,90.80
2017-12-13T02:13:15.044Z,84.97
2017-12-13T02:15:42.577Z,94.10
2017-12-13T02:18:10.116Z,75.60
2017-12-13T02:20:37.664Z,93.27
2017-12-13T02:23:05.225Z,71.03
2017-12-13T02:25:32.760Z,77.90
2017-12-13T02:28:00.313Z,83.40
2017-12-13T02:30:27.841Z,88.63
2017-12-13T02:32:55.419Z,67.30
2017-12-13T02:35:22.950Z,69.63
2017-12-13T02:37:50.474Z,68.70
2017-12-13T02:40:29.937Z,75.97
2017-12-13T02:42:57.457Z,64.63
2017-12-13T02:45:24.976Z,72.40
2017-12-13T02:47:52.529Z,78.27
2017-12-13T02:50:20.050Z,68.37
2017-12-13T02:52:47.618Z,67.90
2017-12-13T02:55:15.160Z,59.90
2017-12-13T02:57:42.692Z,64.00
2017-12-13T03:00:10.257Z,60.53
2017-12-13T03:02:37.783Z,43.27
2017-12-13T03:05:05.339Z,51.13
2017-12-13T03:07:32.902Z,48.57
2017-12-13T03:10:00.425Z,58.87
2017-12-13T03:12:27.945Z,55.27
2017-12-13T03:14:55.515Z,55.77
2017-12-13T03:17:23.048Z,44.10
2017-12-13T03:19:50.559Z,51.43
2017-12-13T03:22:18.101Z,52.90
2017-12-13T03:24:45.616Z,42.83
2017-12-13T03:27:13.195Z,54.20
2017-12-13T03:29:40.718Z,46.43
2017-12-13T03:32:08.267Z,45.70
2017-12-13T03:34:35.784Z,43.87
2017-12-13T03:37:03.354Z,50.73
2017-12-13T03:39:30.868Z,47.07
2017-12-13T03:41:58.379Z,49.77
2017-12-13T03:44:25.929Z,48.90
2017-12-13T03:46:53.474Z,44.07
2017-12-13T03:49:20.993Z,43.27
2017-12-13T03:51:48.559Z,43.97
2017-12-13T03:54:16.088Z,38.83
2017-12-13T03:56:43.616Z,47.63
2017-12-13T03:59:11.183Z,47.00
2017-12-13T04:01:38.704Z,37.90
2017-12-13T04:04:06.233Z,36.33
2017-12-13T04:06:33.773Z,33.93
2017-12-13T04:09:01.292Z,33.90
2017-12-13T04:11:28.827Z,39.10
2017-12-13T04:13:56.404Z,32.17
2017-12-13T04:16:23.935Z,38.80
2017-12-13T04:18:51.452Z,36.20
2017-12-13T04:21:19.029Z,36.07
2017-12-13T04:23:46.549Z,29.27
2017-12-13T04:26:14.085Z,30.33
2017-12-13T04:28:41.644Z,38.40
2017-12-13T04:31:09.168Z,36.17
2017-12-13T04:33:36.696Z,31.17
2017-12-13T04:36:04.237Z,32.63
2017-12-13T04:38:31.757Z,35.90
2017-12-13T04:40:59.320Z,31.90
2017-12-13T04:43:26.845Z,38.13
2017-12-13T04:45:54.368Z,33.53
2017-12-13T04:48:21.935Z,27.50
2017-12-13T04:50:49.463Z,37.73
2017-12-13T04:53:16.990Z,32.00
2017-12-13T04:55:44.538Z,34.77
2017-12-13T04:58:12.060Z,30.57
2017-12-13T05:00:39.609Z,30.20
2017-12-13T05:03:07.129Z,28.43
2017-12-13T05:05:34.693Z,25.47
2017-12-13T05:08:02.208Z,26.40
2017-12-13T05:10:29.720Z,33.33
2017-12-13T05:12:57.270Z,22.73
2017-12-13T05:15:24.790Z,25.47
2017-12-13T05:17:52.335Z,22.90
2017-12-13T05:20:19.921Z,20.73
2017-12-13T05:22:47.498Z,29.33
2017-12-13T05:25:15.030Z,27.93
2017-12-13T05:27:42.539Z,30.37
2017-12-13T05:30:10.109Z,27.13
2017-12-13T05:32:37.621Z,28.73
2017-12-13T05:35:05.146Z,24.57
2017-12-13T05:37:32.686Z,29.83
2017-12-13T05:40:00.191Z,31.00
2017-12-13T05:42:27.751Z,21.97
2017-12-13T05:44:55.267Z,28.50
2017-12-13T05:47:22.793Z,23.87
2017-12-13T05:49:50.359Z,27.73
2017-12-13T05:52:17.875Z,21.90
2017-12-13T05:54:45.406Z,26.20
2017-12-13T05:57:12.972Z,23.50
2017-12-13T05:59:40.497Z,19.03
2017-12-13T06:02:08.959Z,23.77
2017-12-13T06:04:36.528Z,19.13
2017-12-13T06:07:04.046Z,19.80
2017-12-13T06:09:31.559Z,24.07
2017-12-13T06:11:59.163Z,27.50
2017-12-13T06:14:26.709Z,16.30
2017-12-13T06:16:54.219Z,22.90
2017-12-13T06:19:21.785Z,22.60
2017-12-13T06:21:49.283Z,18.33
2017-12-13T06:24:16.835Z,19.10
2017-12-13T06:26:44.387Z,27.77
2017-12-13T06:29:11.886Z,26.23
2017-12-13T06:31:39.423Z,21.27
2017-12-13T06:34:06.981Z,21.30
2017-12-13T06:36:34.499Z,24.97
2017-12-13T06:39:02.019Z,23.90
2017-12-13T06:41:29.580Z,21.03
2017-12-13T06:43:57.088Z,24.47
2017-12-13T06:46:24.600Z,20.57
2017-12-13T06:48:52.168Z,22.10
2017-12-13T06:51:19.685Z,22.13
2017-12-13T06:53:47.192Z,18.03
2017-12-13T06:56:14.718Z,20.63
2017-12-13T06:58:42.237Z,16.93
2017-12-13T07:01:09.801Z,17.60
2017-12-13T07:03:37.303Z,22.10
2017-12-13T07:06:04.817Z,16.90
2017-12-13T07:08:32.381Z,20.83
2017-12-13T07:10:59.889Z,17.17
2017-12-13T07:13:27.395Z,18.53
2017-12-13T07:15:54.929Z,16.07
2017-12-13T07:18:22.479Z,14.90
2017-12-13T07:20:49.997Z,16.50
2017-12-13T07:23:17.508Z,17.80
2017-12-13T07:25:45.049Z,20.80
2017-12-13T07:28:12.570Z,19.50
2017-12-13T07:30:40.136Z,14.43
2017-12-13T07:33:07.640Z,19.50
2017-12-13T07:35:35.162Z,15.17
2017-12-13T07:38:02.736Z,23.33
2017-12-13T07:40:30.240Z,15.27
2017-12-13T07:42:57.756Z,13.37
2017-12-13T07:45:25.371Z,18.03
2017-12-13T07:47:52.867Z,16.97
2017-12-13T07:50:20.372Z,17.33
2017-12-13T07:52:47.924Z,16.40
2017-12-13T07:55:15.432Z,17.33
2017-12-13T07:57:42.940Z,16.70
2017-12-13T08:00:10.506Z,16.80
2017-12-13T08:02:38.008Z,14.33
2017-12-13T08:05:05.511Z,21.03
2017-12-13T08:07:33.072Z,26.37
2017-12-13T08:10:00.578Z,22.87
2017-12-13T08:12:28.093Z,19.10
2017-12-13T08:14:55.640Z,24.90
2017-12-13T08:17:23.206Z,17.33
2017-12-13T08:19:50.712Z,18.23
2017-12-13T08:22:18.224Z,24.37
2017-12-13T08:24:45.756Z,19.57
2017-12-13T08:27:13.288Z,21.63
2017-12-13T08:29:40.789Z,21.47
2017-12-13T08:32:08.366Z,24.00
2017-12-13T08:34:35.871Z,20.63
2017-12-13T08:37:03.393Z,18.07
2017-12-13T08:39:30.965Z,13.07
2017-12-13T08:41:58.474Z,17.87
2017-12-13T08:44:25.988Z,18.57
2017-12-13T08:46:53.526Z,18.17
2017-12-13T08:49:21.045Z,24.57
2017-12-13T08:51:48.613Z,11.47
2017-12-13T08:54:16.129Z,16.03
2017-12-13T08:56:43.652Z,22.30
2017-12-13T08:59:11.219Z,25.93
2017-12-13T09:01:38.724Z,19.93
2017-12-13T09:04:06.219Z,17.73
2017-12-13T09:06:33.804Z,17.10
2017-12-13T09:09:01.320Z,19.00
2017-12-13T09:11:28.821Z,18.57
2017-12-13T09:13:56.357Z,20.27
2017-12-13T09:16:23.916Z,15.97
2017-12-13T09:18:51.494Z,16.47
2017-12-13T09:21:19.013Z,15.80
2017-12-13T09:23:46.555Z,24.43
2017-12-13T09:26:14.079Z,19.47
2017-12-13T09:28:41.610Z,26.43
2017-12-13T09:31:09.152Z,22.10
2017-12-13T09:33:36.655Z,18.63
2017-12-13T09:36:04.211Z,24.83
2017-12-13T09:38:31.730Z,20.50
2017-12-13T09:40:59.254Z,16.53
2017-12-13T09:43:26.813Z,19.73
2017-12-13T09:45:54.321Z,17.00
2017-12-13T09:48:21.840Z,18.10
2017-12-13T09:50:49.398Z,10.97
2017-12-13T09:53:16.912Z,22.90
2017-12-13T09:55:44.439Z,15.80
2017-12-13T09:58:12.004Z,25.37
2017-12-13T10:00:39.532Z,23.90
2017-12-13T10:03:07.052Z,20.50
2017-12-13T10:05:34.592Z,27.47
2017-12-13T10:08:02.173Z,19.00
2017-12-13T10:10:29.721Z,22.27
2017-12-13T10:12:57.232Z,17.03
2017-12-13T10:15:24.752Z,18.00
2017-12-13T10:17:52.282Z,15.23
2017-12-13T10:20:19.831Z,18.47
2017-12-13T10:22:47.393Z,12.23
2017-12-13T10:25:14.904Z,18.83
2017-12-13T10:27:42.425Z,14.60
2017-12-13T10:30:09.980Z,15.97
2017-12-13T10:32:37.498Z,16.33
2017-12-13T10:35:05.008Z,18.47
2017-12-13T10:37:32.545Z,19.03
2017-12-13T10:40:00.057Z,19.70
2017-12-13T10:42:27.611Z,13.70
2017-12-13T10:44:55.134Z,15.60
2017-12-13T10:47:22.650Z,18.17
2017-12-13T10:49:50.201Z,18.40
2017-12-13T10:52:17.709Z,11.13
2017-12-13T10:54:45.207Z,9.43
2017-12-13T10:57:12.773Z,14.67
2017-12-13T10:59:40.281Z,12.20
2017-12-13T11:02:07.824Z,22.67
2017-12-13T11:04:35.385Z,16.47
2017-12-13T11:07:02.893Z,9.43
2017-12-13T11:09:30.391Z,17.70
2017-12-13T11:11:57.930Z,9.70
2017-12-13T11:14:25.486Z,14.50
2017-12-13T11:16:53.001Z,10.83
2017-12-13T11:19:20.531Z,10.60
2017-12-13T11:21:48.053Z,9.20
2017-12-13T11:24:15.619Z,9.80
2017-12-13T11:26:43.116Z,9.20
2017-12-13T11:29:10.643Z,10.67
2017-12-13T11:31:38.224Z,10.77
2017-12-13T11:34:05.732Z,10.40
2017-12-13T11:36:33.249Z,11.13
2017-12-13T11:39:00.779Z,10.03
2017-12-13T11:41:28.285Z,13.13
2017-12-13T11:43:55.802Z,10.00
2017-12-13T11:46:23.366Z,11.73
2017-12-13T11:48:50.873Z,13.60
2017-12-13T11:51:18.379Z,10.80
2017-12-13T11:53:45.924Z,11.10
2017-12-13T11:56:13.445Z,11.03
2017-12-13T11:58:41.009Z,17.37
2017-12-13T12:01:08.534Z,14.37
2017-12-13T12:03:36.048Z,11.73
2017-12-13T12:06:03.598Z,10.33
2017-12-13T12:08:31.136Z,10.80
2017-12-13T12:10:58.631Z,10.87
2017-12-13T12:13:26.160Z,10.53
2017-12-13T12:15:53.692Z,10.97
2017-12-13T12:18:21.241Z,15.87
2017-12-13T12:20:48.743Z,11.57
2017-12-13T12:23:16.280Z,11.40
2017-12-13T12:25:43.784Z,11.30
2017-12-13T12:28:11.343Z,18.50
2017-12-13T12:30:38.843Z,12.10
2017-12-13T12:33:06.347Z,12.27
2017-12-13T12:35:33.877Z,10.60
2017-12-13T12:38:01.428Z,9.27
2017-12-13T12:40:28.992Z,9.57
2017-12-13T12:42:56.504Z,10.57
2017-12-13T12:45:24.020Z,10.30
2017-12-13T12:47:51.568Z,11.63
2017-12-13T12:50:19.076Z,15.30
2017-12-13T12:52:46.588Z,8.90
2017-12-13T12:55:14.119Z,8.30
2017-12-13T12:57:41.619Z,10.27
2017-12-13T13:00:09.184Z,9.50
2017-12-13T13:02:36.688Z,8.63
2017-12-13T13:05:04.197Z,8.03
2017-12-13T13:07:31.760Z,7.80
2017-12-13T13:09:59.272Z,10.93
2017-12-13T13:12:26.781Z,8.63
2017-12-13T13:14:54.335Z,8.23
2017-12-13T13:17:21.853Z,5.93
2017-12-13T13:19:49.348Z,6.50
2017-12-13T13:22:16.881Z,4.83
2017-12-13T13:24:44.384Z,5.93
2017-12-13T13:27:11.956Z,4.90
2017-12-13T13:29:39.484Z,5.57
2017-12-13T13:32:07.038Z,4.83
2017-12-13T13:34:34.592Z,5.10
2017-12-13T13:37:02.096Z,5.33
2017-12-13T13:39:29.608Z,7.43
2017-12-13T13:41:57.156Z,4.33
2017-12-13T13:44:24.665Z,4.33
2017-12-13T13:46:52.171Z,7.37
2017-12-13T13:49:19.733Z,8.80
2017-12-13T13:51:47.245Z,5.80
2017-12-13T13:54:14.752Z,9.57
2017-12-13T13:56:42.295Z,7.40
2017-12-13T13:59:09.792Z,7.80
2017-12-13T14:01:37.301Z,6.60
2017-12-13T14:04:04.831Z,5.40
2017-12-13T14:06:32.326Z,9.17
2017-12-13T14:08:59.905Z,8.33
2017-12-13T14:11:27.408Z,9.40
2017-12-13T14:13:54.925Z,8.40
2017-12-13T14:16:22.484Z,10.93
2017-12-13T14:18:50.005Z,8.63
2017-12-13T14:21:17.536Z,9.17
2017-12-13T14:23:45.111Z,8.50
2017-12-13T14:26:12.628Z,10.83
2017-12-13T14:28:40.144Z,12.37
2017-12-13T14:31:07.717Z,14.87
2017-12-13T14:33:35.239Z,10.63
2017-12-13T14:36:02.744Z,9.43
2017-12-13T14:38:30.305Z,9.23
2017-12-13T14:40:57.826Z,11.17
2017-12-13T14:43:25.345Z,13.87
2017-12-13T14:45:52.885Z,14.03
2017-12-13T14:48:20.426Z,15.47
2017-12-13T14:50:47.944Z,18.63
2017-12-13T14:53:15.487Z,20.43
2017-12-13T14:55:43.069Z,21.33
2017-12-13T14:58:10.576Z,22.90
2017-12-13T15:00:38.835Z,24.93
2017-12-13T15:03:06.408Z,30.90
2017-12-13T15:05:33.930Z,29.57
2017-12-13T15:08:01.457Z,32.83
2017-12-13T15:10:29.020Z,27.30
2017-12-13T15:12:56.537Z,35.97
2017-12-13T15:15:24.056Z,39.37
2017-12-13T15:17:51.620Z,39.20
2017-12-13T15:20:19.142Z,58.70
2017-12-13T15:22:46.647Z,47.03
2017-12-13T15:25:14.216Z,48.57
2017-12-13T15:27:41.732Z,44.37
2017-12-13T15:30:09.309Z,56.40
2017-12-13T15:32:36.850Z,46.47
2017-12-13T15:35:04.432Z,55.13
2017-12-13T15:37:31.953Z,57.10
2017-12-13T15:39:59.482Z,56.93
2017-12-13T15:42:27.048Z,67.03
2017-12-13T15:44:54.571Z,53.97
2017-12-13T15:47:22.084Z,57.13
2017-12-13T15:49:49.662Z,50.57
2017-12-13T15:52:17.192Z,60.23
2017-12-13T15:54:44.736Z,70.77
2017-12-13T15:57:12.305Z,41.20
2017-12-13T15:59:39.819Z,54.40
2017-12-13T16:02:07.332Z,51.67
2017-12-13T16:04:34.897Z,72.77
2017-12-13T16:07:02.412Z,62.87
2017-12-13T16:09:29.928Z,57.47
2017-12-13T16:11:57.484Z,69.13
2017-12-13T16:14:25.000Z,55.90
2017-12-13T16:16:52.568Z,66.07
2017-12-13T16:19:20.095Z,64.63
2017-12-13T16:21:47.604Z,62.10
2017-12-13T16:24:15.172Z,65.07
2017-12-13T16:26:42.697Z,61.07
2017-12-13T16:29:10.222Z,67.53
2017-12-13T16:31:37.770Z,67.67
2017-12-13T16:34:05.280Z,62.60
2017-12-13T16:36:32.844Z,66.43
2017-12-13T16:39:00.360Z,73.73
2017-12-13T16:41:27.881Z,60.97
2017-12-13T16:43:55.427Z,67.63
2017-12-13T16:46:22.952Z,76.97
2017-12-13T16:48:50.486Z,66.27
2017-12-13T16:51:18.049Z,73.83
2017-12-13T16:53:45.576Z,84.13
2017-12-13T16:56:13.089Z,69.30
2017-12-13T16:58:40.636Z,56.80
2017-12-13T17:01:08.169Z,51.27
2017-12-13T17:03:35.681Z,56.13
2017-12-13T17:06:03.258Z,70.83
2017-12-13T17:08:30.821Z,44.90
2017-12-13T17:10:58.332Z,55.10
2017-12-13T17:13:25.918Z,50.93
2017-12-13T17:15:53.501Z,51.40
2017-12-13T17:18:21.007Z,43.97
2017-12-13T17:20:48.572Z,38.57
2017-12-13T17:23:16.089Z,42.83
2017-12-13T17:25:43.623Z,40.70
2017-12-13T17:28:11.161Z,42.67
2017-12-13T17:30:38.676Z,40.40
2017-12-13T17:33:06.212Z,43.90
2017-12-13T17:35:33.759Z,39.57
2017-12-13T17:38:01.264Z,35.87
2017-12-13T17:40:28.783Z,36.17
2017-12-13T17:42:56.372Z,36.40
2017-12-13T17:45:23.892Z,41.50
2017-12-13T17:47:51.428Z,33.30
2017-12-13T17:50:18.965Z,32.27
2017-12-13T17:52:46.532Z,32.53
2017-12-13T17:55:14.044Z,34.97
2017-12-13T17:57:41.561Z,30.47
2017-12-13T18:00:09.116Z,41.03
2017-12-13T18:02:36.623Z,28.07
2017-12-13T18:05:04.180Z,33.30
2017-12-13T18:07:31.725Z,27.97
2017-12-13T18:09:59.246Z,28.47
2017-12-13T18:12:26.796Z,32.70
2017-12-13T18:14:54.309Z,29.07
2017-12-13T18:17:21.873Z,27.83
2017-12-13T18:19:49.384Z,34.27
2017-12-13T18:22:16.896Z,32.40
2017-12-13T18:24:44.433Z,29.30
2017-12-13T18:27:11.947Z,30.43
2017-12-13T18:29:39.479Z,36.50
2017-12-13T18:32:07.043Z,29.77
2017-12-13T18:34:34.561Z,28.30
2017-12-13T18:37:02.073Z,29.70
2017-12-13T18:39:29.624Z,29.30
2017-12-13T18:41:57.155Z,28.37
2017-12-13T18:44:24.728Z,36.23
2017-12-13T18:46:52.262Z,35.27
2017-12-13T18:49:19.784Z,39.07
2017-12-13T18:51:47.361Z,34.13
2017-12-13T18:54:14.908Z,33.03
2017-12-13T18:56:42.436Z,38.13
2017-12-13T18:59:10.005Z,36.53
2017-12-13T19:01:37.543Z,38.70
2017-12-13T19:04:05.076Z,37.60
2017-12-13T19:06:32.646Z,38.60
2017-12-13T19:09:00.178Z,37.47
2017-12-13T19:11:27.712Z,35.70
2017-12-13T19:13:55.251Z,33.13
2017-12-13T19:16:22.793Z,37.10
2017-12-13T19:18:50.308Z,37.93
2017-12-13T19:21:17.883Z,37.27
2017-12-13T19:23:45.407Z,34.87
2017-12-13T19:26:12.934Z,38.37
2017-12-13T19:28:40.468Z,33.13
2017-12-13T19:31:08.025Z,31.57
2017-12-13T19:33:35.558Z,27.07
2017-12-13T19:36:03.072Z,34.90
2017-12-13T19:38:30.631Z,28.43
2017-12-13T19:40:58.139Z,29.83
2017-12-13T19:43:25.656Z,30.40
2017-12-13T19:45:53.244Z,33.27
2017-12-13T19:48:20.779Z,28.90
2017-12-13T19:50:48.346Z,30.87
2017-12-13T19:53:15.924Z,31.30
2017-12-13T19:55:43.444Z,31.17
2017-12-13T19:58:10.964Z,31.77
2017-12-13T20:00:38.549Z,33.40
2017-12-13T20:03:06.116Z,33.93
2017-12-13T20:05:33.644Z,31.10
2017-12-13T20:08:01.191Z,30.80
2017-12-13T20:10:28.775Z,30.23
2017-12-13T20:12:56.300Z,28.00
2017-12-13T20:15:23.821Z,30.57
2017-12-13T20:17:51.406Z,27.33
2017-12-13T20:20:18.938Z,26.30
2017-12-13T20:22:46.469Z,25.03
2017-12-13T20:25:14.039Z,27.23
2017-12-13T20:27:41.555Z,26.50
2017-12-13T20:30:09.083Z,29.60
2017-12-13T20:32:36.624Z,25.83
2017-12-13T20:35:04.196Z,26.00
2017-12-13T20:37:31.744Z,21.57
2017-12-13T20:39:59.269Z,22.23
2017-12-13T20:42:26.833Z,22.00
2017-12-13T20:44:54.341Z,21.33
2017-12-13T20:47:21.864Z,22.93
2017-12-13T20:49:49.405Z,19.60
2017-12-13T20:52:16.924Z,20.10
2017-12-13T20:54:44.485Z,21.80
2017-12-13T20:57:11.999Z,21.00
2017-12-13T20:59:39.545Z,20.33
2017-12-13T21:02:07.054Z,17.97
2017-12-13T21:04:34.625Z,22.67
2017-12-13T21:07:02.152Z,19.63
2017-12-13T21:09:29.663Z,20.57
2017-12-13T21:11:57.223Z,18.17
2017-12-13T21:14:24.736Z,20.47
2017-12-13T21:16:52.252Z,24.00
2017-12-13T21:19:19.826Z,26.57
2017-12-13T21:21:47.341Z,20.00
2017-12-13T21:24:14.892Z,21.10
2017-12-13T21:26:42.565Z,20.20
2017-12-13T21:29:10.085Z,21.37
2017-12-13T21:31:37.587Z,18.67
2017-12-13T21:34:05.150Z,20.47
2017-12-13T21:36:32.666Z,21.10
2017-12-13T21:39:00.189Z,17.33
2017-12-13T21:41:27.839Z,17.27
2017-12-13T21:43:55.377Z,15.93
2017-12-13T21:46:22.888Z,19.23
2017-12-13T21:48:51.348Z,19.47
2017-12-13T21:51:18.874Z,19.33
2017-12-13T21:53:46.397Z,13.47
2017-12-13T21:56:13.966Z,16.70
2017-12-13T21:58:41.488Z,16.60
2017-12-13T22:01:08.996Z,11.63
2017-12-13T22:03:36.539Z,11.77
2017-12-13T22:06:04.055Z,12.23
2017-12-13T22:08:31.616Z,10.00
2017-12-13T22:10:59.158Z,9.77
2017-12-13T22:13:26.687Z,9.53
2017-12-13T22:15:54.199Z,7.20
2017-12-13T22:18:21.748Z,8.67
2017-12-13T22:20:49.277Z,13.27
2017-12-13T22:23:16.798Z,13.80
2017-12-13T22:25:44.391Z,7.37
2017-12-13T22:28:11.905Z,10.20
2017-12-13T22:30:39.413Z,10.10
2017-12-13T22:33:06.949Z,6.90
2017-12-13T22:35:34.466Z,7.80
2017-12-13T22:38:02.002Z,8.50
2017-12-13T22:40:29.516Z,6.97
2017-12-13T22:42:57.075Z,7.33
2017-12-13T22:45:24.593Z,9.63
2017-12-13T22:47:52.147Z,8.77
2017-12-13T22:50:19.773Z,9.00
2017-12-13T22:52:47.294Z,10.30
2017-12-13T22:55:14.838Z,6.50
2017-12-13T22:57:42.384Z,3.53
2017-12-13T23:00:09.972Z,5.60
2017-12-13T23:02:37.547Z,9.50
2017-12-13T23:05:05.047Z,6.70
2017-12-13T23:07:32.579Z,7.00
2017-12-13T23:10:00.093Z,12.33
2017-12-13T23:12:27.659Z,10.10
2017-12-13T23:14:55.172Z,8.33
2017-12-13T23:17:23.598Z,6.70
2017-12-13T23:19:51.152Z,14.10
2017-12-13T23:22:18.714Z,10.00
2017-12-13T23:24:46.228Z,5.20
2017-12-13T23:27:13.794Z,12.00
2017-12-13T23:29:41.325Z,7.30
2017-12-13T23:32:08.890Z,10.47
2017-12-13T23:34:36.388Z,7.37
2017-12-13T23:37:03.891Z,15.63
2017-12-13T23:39:31.451Z,14.10
2017-12-13T23:41:58.956Z,12.07
2017-12-13T23:44:26.455Z,8.10
2017-12-13T23:46:54.018Z,12.60
2017-12-13T23:49:21.530Z,15.40
2017-12-13T23:51:49.068Z,7.30
2017-12-13T23:54:16.603Z,13.57
2017-12-13T23:56:44.121Z,11.07
2017-12-13T23:59:11.680Z,10.90
